Time;durP1;ratioP1;P1;durP2;ratioP2;P2;SDS_P1;SDS_P2;PMS_P1;PMS_P2;Temp;Humidity;BMP_temperature;BMP_pressure;BME280_temperature;BME280_humidity;BME280_pressure;Samples;Min_cycle;Max_cycle;Signal;HPM_P1;HPM_P2
2022/01/08 00:01:09;;;;;;;26.05;18.48;;;;;;;1.20;100.00;100520.41;4959118;28;20218;-79
2022/01/08 00:03:35;;;;;;;22.35;17.55;;;;;;;1.18;100.00;100523.09;4957844;28;20226;-80
2022/01/08 00:06:01;;;;;;;27.45;18.63;;;;;;;1.24;100.00;100543.25;4959058;28;20182;-79
2022/01/08 00:08:26;;;;;;;27.25;18.30;;;;;;;1.21;100.00;100528.31;4961741;29;20231;-79
2022/01/08 00:10:53;;;;;;;25.73;17.92;;;;;;;1.24;100.00;100536.22;4960682;29;20209;-78
2022/01/08 00:13:19;;;;;;;23.08;17.77;;;;;;;1.23;100.00;100546.81;4962226;28;20187;-80
2022/01/08 00:15:44;;;;;;;23.85;18.02;;;;;;;1.26;100.00;100535.34;4964882;28;20173;-79
2022/01/08 00:18:10;;;;;;;26.52;18.23;;;;;;;1.31;100.00;100541.47;4963894;29;20543;-79
2022/01/08 00:20:35;;;;;;;23.50;17.15;;;;;;;1.31;100.00;100542.38;4959305;28;20236;-80
2022/01/08 00:23:02;;;;;;;24.17;17.58;;;;;;;1.28;100.00;100531.81;4958282;28;20615;-80
2022/01/08 00:25:27;;;;;;;23.25;17.80;;;;;;;1.30;100.00;100543.25;4958778;28;20242;-79
2022/01/08 00:27:53;;;;;;;26.02;17.30;;;;;;;1.27;100.00;100531.81;4961711;28;20639;-80
2022/01/08 00:30:19;;;;;;;23.45;17.70;;;;;;;1.27;100.00;100537.09;4942558;28;20246;-80
2022/01/08 00:32:44;;;;;;;24.33;16.75;;;;;;;1.41;100.00;100543.19;4960999;28;20206;-79
2022/01/08 00:35:11;;;;;;;24.02;16.25;;;;;;;1.31;100.00;100552.03;4961479;28;20186;-77
2022/01/08 00:37:37;;;;;;;29.02;17.98;;;;;;;1.32;100.00;100546.75;4956024;28;20178;-81
2022/01/08 00:40:05;;;;;;;20.50;15.93;;;;;;;1.37;100.00;100549.38;4959558;29;20175;-79
2022/01/08 00:42:31;;;;;;;18.90;15.40;;;;;;;1.32;100.00;100540.59;4958503;28;20174;-80
2022/01/08 00:44:56;;;;;;;24.23;15.50;;;;;;;1.30;100.00;100535.31;4958234;29;20187;-78
2022/01/08 00:47:23;;;;;;;25.33;15.20;;;;;;;1.26;100.00;100545.91;4943485;29;20202;-79
2022/01/08 00:49:48;;;;;;;24.92;15.75;;;;;;;1.26;100.00;100543.25;4941855;28;20539;-81
2022/01/08 00:52:13;;;;;;;21.00;15.23;;;;;;;1.27;100.00;100530.06;4958134;28;20289;-80
2022/01/08 00:54:39;;;;;;;21.50;14.55;;;;;;;1.30;100.00;100543.25;4936183;29;20183;-79
2022/01/08 00:57:05;;;;;;;19.95;14.35;;;;;;;1.27;100.00;100535.34;4938548;29;20167;-80
2022/01/08 00:59:31;;;;;;;21.45;15.38;;;;;;;1.23;100.00;100530.97;4938510;29;20191;-79
2022/01/08 01:01:57;;;;;;;19.77;14.80;;;;;;;1.23;100.00;100528.34;4937425;29;20628;-80
2022/01/08 01:04:22;;;;;;;20.25;14.10;;;;;;;1.21;100.00;100538.00;4939657;29;20571;-79
2022/01/08 01:06:47;;;;;;;20.30;12.95;;;;;;;1.20;100.00;100537.16;4938134;29;20202;-79
2022/01/08 01:09:13;;;;;;;15.95;12.60;;;;;;;1.19;100.00;100543.28;4939480;29;20176;-79
2022/01/08 01:11:39;;;;;;;18.90;13.05;;;;;;;1.17;100.00;100547.69;4938109;29;20200;-79
2022/01/08 01:14:04;;;;;;;20.95;13.40;;;;;;;1.28;100.00;100534.44;4938266;29;20186;-79
2022/01/08 01:16:30;;;;;;;18.92;13.82;;;;;;;1.18;100.00;100541.56;4937403;29;20225;-79
2022/01/08 01:18:57;;;;;;;21.05;12.93;;;;;;;1.17;100.00;100539.78;4936699;29;20578;-80
2022/01/08 01:21:23;;;;;;;16.83;12.55;;;;;;;1.17;100.00;100546.81;4938528;29;20191;-80
2022/01/08 01:23:49;;;;;;;18.33;12.38;;;;;;;1.18;100.00;100538.00;4934385;29;20215;-79
2022/01/08 01:26:20;;;;;;;18.45;12.00;;;;;;;1.14;100.00;100541.56;4938181;29;20261;-79
2022/01/08 01:47:10;;;;;;;19.08;10.65;;;;;;;1.11;100.00;100531.88;4936831;29;20179;-80
2022/01/08 01:49:39;;;;;;;14.40;10.60;;;;;;;1.09;100.00;100525.75;4939199;29;20168;-79
2022/01/08 01:52:06;;;;;;;13.93;10.65;;;;;;;1.07;100.00;100529.28;4941411;29;20184;-79
2022/01/08 01:54:32;;;;;;;17.17;10.82;;;;;;;1.07;100.00;100521.34;4940319;29;20210;-79
2022/01/08 01:57:00;;;;;;;16.10;10.73;;;;;;;1.05;100.00;100518.75;4938826;29;20191;-79
2022/01/08 01:59:31;;;;;;;18.60;10.63;;;;;;;1.09;100.00;100525.75;4937501;29;20319;-79
2022/01/08 02:01:57;;;;;;;13.80;10.70;;;;;;;1.10;100.00;100532.78;4937933;29;20559;-81
2022/01/08 02:04:23;;;;;;;15.68;11.15;;;;;;;1.12;100.00;100525.75;4935613;29;20183;-80
2022/01/08 02:06:49;;;;;;;14.20;11.05;;;;;;;1.06;100.00;100536.31;4937259;29;20192;-79
2022/01/08 02:09:15;;;;;;;13.05;10.65;;;;;;;1.06;100.00;100546.88;4937159;29;20183;-80
2022/01/08 02:12:01;;;;;;;13.90;10.07;;;;;;;1.05;100.00;100544.22;4935364;29;20199;-80
2022/01/08 02:14:29;;;;;;;12.35;10.50;;;;;;;1.05;100.00;100536.31;4939661;28;20209;-79
2022/01/08 02:16:55;;;;;;;15.00;9.50;;;;;;;1.00;100.00;100538.97;4959855;28;20189;-79
2022/01/08 02:19:21;;;;;;;13.43;10.05;;;;;;;0.99;100.00;100537.22;4955449;28;20199;-79
2022/01/08 02:21:58;;;;;;;11.02;9.02;;;;;;;0.99;100.00;100540.75;4968522;28;20193;-79
2022/01/08 02:24:26;;;;;;;12.38;8.82;;;;;;;1.04;100.00;100540.72;4974888;28;20639;-79
2022/01/08 02:26:51;;;;;;;12.55;9.05;;;;;;;0.96;100.00;100539.84;4974116;28;20185;-78
2022/01/08 02:29:20;;;;;;;14.57;9.52;;;;;;;1.00;100.00;100534.56;4976354;28;20236;-78
2022/01/08 02:31:54;;;;;;;10.05;8.35;;;;;;;0.93;100.00;100530.19;4976553;28;20260;-78
2022/01/08 02:34:20;;;;;;;12.65;8.77;;;;;;;1.01;100.00;100533.69;4977169;28;20177;-79
2022/01/08 02:36:45;;;;;;;11.48;8.55;;;;;;;0.98;100.00;100535.47;4975716;28;20181;-78
2022/01/08 02:39:12;;;;;;;11.82;8.98;;;;;;;0.95;100.00;100546.91;4974985;28;20194;-78
2022/01/08 02:41:39;;;;;;;12.27;8.57;;;;;;;0.93;100.00;100538.13;4974594;28;20217;-78
2022/01/08 02:44:06;;;;;;;11.65;8.68;;;;;;;0.98;100.00;100536.38;4972756;28;20707;-80
2022/01/08 02:46:32;;;;;;;10.18;8.98;;;;;;;1.02;100.00;100537.22;4971912;28;20241;-80
2022/01/08 02:48:57;;;;;;;9.82;8.75;;;;;;;0.95;100.00;100539.00;4974507;28;20170;-79
2022/01/08 02:51:24;;;;;;;12.77;8.27;;;;;;;0.98;100.00;100535.47;4974080;28;20202;-78
2022/01/08 02:53:49;;;;;;;10.98;8.68;;;;;;;0.93;100.00;100531.97;4975153;28;20178;-80
2022/01/08 02:56:15;;;;;;;11.57;8.60;;;;;;;0.94;100.00;100523.16;4971234;28;20186;-80
2022/01/08 02:58:40;;;;;;;12.43;8.82;;;;;;;0.94;100.00;100528.44;4972032;28;20588;-80
2022/01/08 03:01:05;;;;;;;11.57;8.93;;;;;;;0.91;100.00;100531.97;4974233;28;20245;-79
2022/01/08 03:03:31;;;;;;;11.50;9.27;;;;;;;0.94;100.00;100517.88;4971862;28;20663;-80
2022/01/08 03:05:56;;;;;;;11.82;8.90;;;;;;;0.98;100.00;100524.91;4973635;28;20631;-79
2022/01/08 03:08:22;;;;;;;16.77;9.52;;;;;;;0.92;100.00;100517.00;4974114;28;20194;-79
2022/01/08 03:10:47;;;;;;;13.98;8.80;;;;;;;0.92;100.00;100517.00;4973983;28;20205;-79
2022/01/08 03:13:13;;;;;;;11.35;9.63;;;;;;;0.86;100.00;100522.34;4958445;28;20186;-79
2022/01/08 03:15:41;;;;;;;11.57;9.27;;;;;;;0.88;100.00;100517.94;4973998;28;20189;-78
2022/01/08 03:18:07;;;;;;;10.95;9.27;;;;;;;0.91;100.00;100507.38;4972990;28;20173;-80
2022/01/08 03:20:35;;;;;;;12.45;9.43;;;;;;;0.88;100.00;100508.25;4973035;28;20914;-80
2022/01/08 03:23:03;;;;;;;13.10;9.18;;;;;;;0.87;100.00;100522.31;4971556;28;20213;-78
2022/01/08 03:25:32;;;;;;;12.65;9.90;;;;;;;0.87;100.00;100513.53;4970776;28;20178;-77
2022/01/08 03:27:57;;;;;;;15.27;10.27;;;;;;;0.82;100.00;100516.19;4969776;28;20177;-77
2022/01/08 03:30:24;;;;;;;13.57;11.02;;;;;;;0.90;100.00;100516.19;4971050;28;20194;-77
2022/01/08 03:32:51;;;;;;;11.30;9.95;;;;;;;0.88;100.00;100507.38;4973368;28;20217;-78
2022/01/08 03:35:16;;;;;;;14.05;10.07;;;;;;;0.82;100.00;100505.63;4976920;28;20543;-78
2022/01/08 03:37:42;;;;;;;12.75;10.57;;;;;;;0.85;100.00;100517.94;4975986;28;20277;-80
2022/01/08 03:40:08;;;;;;;13.60;10.35;;;;;;;0.88;100.00;100505.63;4973735;28;20212;-79
2022/01/08 03:42:33;;;;;;;13.93;11.40;;;;;;;0.81;100.00;100502.13;4974673;28;20220;-78
2022/01/08 03:44:59;;;;;;;13.85;11.10;;;;;;;0.76;100.00;100495.97;4973280;28;20182;-78
2022/01/08 03:49:53;;;;;;;14.50;10.85;;;;;;;0.75;100.00;100494.22;4973773;28;20178;-77
2022/01/08 03:52:19;;;;;;;17.52;11.48;;;;;;;0.78;100.00;100494.22;4972601;28;20296;-77
2022/01/08 03:54:48;;;;;;;13.93;12.13;;;;;;;0.78;100.00;100491.56;4942297;28;20174;-78
2022/01/08 03:57:13;;;;;;;14.30;11.43;;;;;;;0.72;100.00;100494.25;4954719;28;20166;-77
2022/01/08 03:59:39;;;;;;;16.98;11.88;;;;;;;0.74;100.00;100494.22;4954837;29;20182;-77
2022/01/08 04:02:05;;;;;;;17.27;12.82;;;;;;;0.72;100.00;100499.53;4955009;29;20249;-77
2022/01/08 04:04:30;;;;;;;19.80;13.07;;;;;;;0.71;100.00;100495.13;4955995;28;20545;-77
2022/01/08 04:06:56;;;;;;;17.42;13.65;;;;;;;0.75;100.00;100488.09;4955195;28;20167;-78
2022/01/08 04:09:21;;;;;;;21.33;13.65;;;;;;;0.74;100.00;100488.97;4955099;29;20178;-79
2022/01/08 04:11:47;;;;;;;17.60;12.50;;;;;;;0.74;100.00;100492.47;4957152;28;20182;-78
2022/01/08 04:14:14;;;;;;;18.75;13.43;;;;;;;0.75;100.00;100478.41;4953211;28;20199;-79
2022/01/08 04:16:44;;;;;;;19.08;13.68;;;;;;;0.76;100.00;100481.91;4938562;29;20202;-78
2022/01/08 04:19:10;;;;;;;15.07;13.43;;;;;;;0.73;100.00;100467.00;4967409;28;20158;-78
2022/01/08 04:24:04;;;;;;;17.50;12.88;;;;;;;0.75;100.00;100464.34;4975332;28;20181;-79
2022/01/08 04:26:30;;;;;;;14.85;13.25;;;;;;;0.74;100.00;100468.72;4960558;28;20191;-78
2022/01/08 04:28:55;;;;;;;18.98;13.98;;;;;;;0.73;100.00;100466.13;4944203;28;20182;-80
2022/01/08 04:31:22;;;;;;;19.45;13.30;;;;;;;0.76;100.00;100466.09;4949450;28;20206;-79
2022/01/08 04:33:48;;;;;;;18.05;13.48;;;;;;;0.78;100.00;100485.44;4973348;28;20679;-78
2022/01/08 04:36:14;;;;;;;17.42;12.52;;;;;;;0.76;100.00;100490.69;4973199;28;20253;-79
2022/01/08 04:38:40;;;;;;;17.77;13.10;;;;;;;0.86;100.00;100488.06;4977536;28;20241;-80
2022/01/08 04:41:05;;;;;;;18.35;13.52;;;;;;;0.81;100.00;100483.66;4976090;28;20244;-79
2022/01/08 04:43:31;;;;;;;16.88;14.15;;;;;;;0.81;100.00;100485.44;4977640;28;20178;-79
2022/01/08 04:45:57;;;;;;;17.27;13.60;;;;;;;0.86;100.00;100477.50;4977934;28;20316;-80
2022/01/08 04:48:22;;;;;;;15.75;13.07;;;;;;;0.81;100.00;100480.16;4978128;28;20273;-79
2022/01/08 04:50:47;;;;;;;17.85;13.48;;;;;;;0.82;100.00;100488.03;4979118;28;20201;-79
2022/01/08 04:53:16;;;;;;;17.45;13.10;;;;;;;0.88;100.00;100481.00;4977709;28;20190;-79
2022/01/08 04:55:42;;;;;;;15.48;12.73;;;;;;;0.85;100.00;100484.50;4977017;28;20217;-79
2022/01/08 04:58:07;;;;;;;17.10;12.50;;;;;;;0.92;100.00;100481.00;4979961;28;20193;-80
2022/01/08 05:00:33;;;;;;;16.02;13.13;;;;;;;0.86;100.00;100485.41;4979324;28;20190;-80
2022/01/08 05:02:59;;;;;;;18.27;13.40;;;;;;;0.84;100.00;100466.09;4979268;28;20515;-79
2022/01/08 05:05:26;;;;;;;16.25;13.13;;;;;;;0.85;100.00;100459.91;4975264;28;20833;-79
2022/01/08 05:07:51;;;;;;;15.43;12.35;;;;;;;0.85;100.00;100463.41;4976540;28;20635;-80
2022/01/08 05:10:17;;;;;;;14.52;12.27;;;;;;;0.85;100.00;100466.06;4972642;28;20225;-79
2022/01/08 05:12:43;;;;;;;16.50;13.05;;;;;;;0.87;100.00;100485.38;4972152;28;20209;-79
2022/01/08 05:15:09;;;;;;;17.45;13.15;;;;;;;0.86;100.00;100475.72;4975286;28;20560;-80
2022/01/08 05:17:37;;;;;;;14.63;13.07;;;;;;;0.91;100.00;100492.41;4975194;28;20201;-80
2022/01/08 05:20:08;;;;;;;18.92;13.68;;;;;;;0.87;100.00;100471.34;4975199;28;20190;-80
2022/01/08 05:25:12;;;;;;;15.10;12.38;;;;;;;0.82;100.00;100505.63;4974274;28;20236;-80
2022/01/08 05:27:37;;;;;;;16.83;12.60;;;;;;;0.85;100.00;100488.91;4976920;28;20178;-79
2022/01/08 05:30:04;;;;;;;17.80;12.15;;;;;;;0.88;100.00;100478.38;4974733;28;20735;-79
2022/01/08 05:32:30;;;;;;;18.25;13.07;;;;;;;0.89;100.00;100486.25;4974998;28;20206;-79
2022/01/08 05:34:56;;;;;;;15.15;12.45;;;;;;;0.93;100.00;100479.22;4977097;28;20261;-79
2022/01/08 05:37:21;;;;;;;18.80;12.38;;;;;;;0.95;100.00;100480.09;4960237;28;20181;-80
2022/01/08 05:39:48;;;;;;;16.77;12.95;;;;;;;0.88;100.00;100484.53;4980304;28;20178;-79
2022/01/08 05:42:14;;;;;;;16.90;12.00;;;;;;;0.90;100.00;100482.75;4983642;28;20216;-79
2022/01/08 05:44:40;;;;;;;15.90;11.90;;;;;;;0.92;100.00;100488.91;4984003;28;20177;-79
2022/01/08 05:47:05;;;;;;;16.88;11.63;;;;;;;0.86;100.00;100478.38;4981828;28;20238;-79
2022/01/08 05:49:32;;;;;;;16.05;12.30;;;;;;;0.87;100.00;100468.69;4980874;28;20181;-80
2022/01/08 05:51:57;;;;;;;14.18;11.60;;;;;;;0.86;100.00;100466.94;4976765;28;20205;-79
2022/01/08 05:54:22;;;;;;;17.50;12.32;;;;;;;0.85;100.00;100476.59;4976585;28;20208;-79
2022/01/08 05:56:50;;;;;;;15.02;12.50;;;;;;;0.85;100.00;100475.72;4976766;28;20190;-79
2022/01/08 05:59:15;;;;;;;17.83;12.40;;;;;;;0.90;100.00;100466.06;4976932;28;20252;-79
2022/01/08 06:01:41;;;;;;;18.50;12.07;;;;;;;0.87;100.00;100472.19;4973916;28;20232;-79
2022/01/08 06:04:06;;;;;;;16.45;11.95;;;;;;;0.88;100.00;100471.34;4959343;28;20273;-79
2022/01/08 06:06:31;;;;;;;16.77;12.50;;;;;;;0.87;100.00;100489.78;4975226;28;20185;-79
2022/01/08 06:08:57;;;;;;;17.08;12.07;;;;;;;0.89;100.00;100491.53;4975483;28;20197;-80
2022/01/08 06:11:22;;;;;;;15.73;11.13;;;;;;;0.93;100.00;100493.28;4974428;28;20198;-80
2022/01/08 06:13:48;;;;;;;15.57;11.75;;;;;;;0.91;100.00;100495.03;4973459;28;20301;-80
2022/01/08 06:16:14;;;;;;;14.95;11.07;;;;;;;0.92;100.00;100501.19;4974169;28;20181;-80
2022/01/08 06:18:40;;;;;;;16.25;11.60;;;;;;;0.97;100.00;100504.69;4972939;28;20654;-82
2022/01/08 06:21:07;;;;;;;16.08;10.98;;;;;;;1.07;100.00;100506.41;4980415;28;20679;-80
2022/01/08 06:23:32;;;;;;;16.60;11.98;;;;;;;1.04;100.00;100501.16;4976716;28;20209;-80
2022/01/08 06:25:58;;;;;;;14.98;10.95;;;;;;;0.97;100.00;100495.03;4974274;28;20237;-79
2022/01/08 06:28:23;;;;;;;14.75;10.85;;;;;;;1.03;100.00;100500.28;4976129;28;20174;-79
2022/01/08 06:30:49;;;;;;;16.00;11.90;;;;;;;1.04;100.00;100493.22;4978270;28;20202;-79
2022/01/08 06:33:16;;;;;;;15.98;11.68;;;;;;;1.02;100.00;100505.56;4960615;28;20246;-79
2022/01/08 06:35:42;;;;;;;17.27;11.45;;;;;;;1.00;100.00;100495.00;4974771;28;20248;-80
2022/01/08 06:38:07;;;;;;;18.67;11.40;;;;;;;1.01;100.00;100506.44;4976308;28;20174;-79
2022/01/08 06:40:33;;;;;;;14.10;11.18;;;;;;;1.05;100.00;100517.84;4979912;28;20344;-79
2022/01/08 06:42:58;;;;;;;17.40;11.35;;;;;;;1.01;100.00;100514.38;4980779;28;20173;-79
2022/01/08 06:45:24;;;;;;;15.55;12.15;;;;;;;0.99;100.00;100506.44;4976827;28;20178;-79
2022/01/08 06:47:49;;;;;;;14.40;12.38;;;;;;;1.01;100.00;100514.38;4975051;28;20635;-80
2022/01/08 06:50:15;;;;;;;14.95;11.82;;;;;;;1.01;100.00;100509.09;4974138;28;20208;-80
2022/01/08 06:52:40;;;;;;;16.25;12.05;;;;;;;1.03;100.00;100528.44;4970399;28;20195;-78
2022/01/08 06:55:07;;;;;;;15.25;12.52;;;;;;;1.01;100.00;100532.81;4951783;29;20302;-78
2022/01/08 06:57:32;;;;;;;17.90;12.48;;;;;;;1.00;100.00;100523.16;4955687;29;20194;-80
2022/01/08 07:00:00;;;;;;;15.43;11.05;;;;;;;1.00;100.00;100529.28;4956536;28;20171;-81
2022/01/08 07:02:26;;;;;;;15.43;11.63;;;;;;;1.03;100.00;100537.22;4943324;28;20171;-80
2022/01/08 07:04:51;;;;;;;14.90;11.02;;;;;;;1.12;100.00;100532.78;4955268;28;20297;-80
2022/01/08 07:07:16;;;;;;;15.75;10.43;;;;;;;1.17;100.00;100517.81;4957535;28;20171;-80
2022/01/08 07:09:42;;;;;;;16.92;11.52;;;;;;;1.11;100.00;100513.41;4940337;29;20644;-79
2022/01/08 07:12:07;;;;;;;15.50;11.38;;;;;;;1.12;100.00;100522.22;4955581;28;20668;-81
2022/01/08 07:14:33;;;;;;;14.40;10.82;;;;;;;1.13;100.00;100511.66;4960405;28;20175;-78
2022/01/08 07:24:47;;;;;;;16.80;11.88;;;;;;;1.17;100.00;100518.66;5060987;27;20847;-54
2022/01/08 07:27:13;;;;;;;14.00;11.68;;;;;;;1.16;100.00;100513.38;5046171;28;20192;-52
2022/01/08 07:29:38;;;;;;;14.25;11.73;;;;;;;1.17;100.00;100508.13;5046518;28;20222;-52
2022/01/08 07:32:04;;;;;;;14.57;11.75;;;;;;;1.17;100.00;100505.47;5046708;28;20171;-49
2022/01/08 07:34:30;;;;;;;16.13;12.13;;;;;;;1.23;100.00;100515.13;5046513;28;20594;-49
2022/01/08 07:36:55;;;;;;;15.57;11.30;;;;;;;1.20;100.00;100516.03;5039826;28;20195;-49
2022/01/08 07:39:21;;;;;;;14.40;11.15;;;;;;;1.24;100.00;100512.47;5036012;28;20593;-53
2022/01/08 07:41:46;;;;;;;20.70;12.27;;;;;;;1.18;100.00;100515.16;5046041;28;20282;-48
2022/01/08 07:44:14;;;;;;;14.13;11.07;;;;;;;1.21;100.00;100515.13;5045418;28;20207;-48
2022/01/08 07:46:39;;;;;;;15.25;11.45;;;;;;;1.20;100.00;100520.41;5044569;28;20178;-50
2022/01/08 07:49:05;;;;;;;15.15;11.30;;;;;;;1.22;100.00;100516.00;5044441;28;20521;-48
2022/01/08 07:51:30;;;;;;;17.85;12.60;;;;;;;1.21;100.00;100515.13;5046998;28;20997;-48
2022/01/08 07:53:56;;;;;;;13.65;11.20;;;;;;;1.24;100.00;100512.47;5031634;28;20181;-48
2022/01/08 07:56:21;;;;;;;21.10;13.73;;;;;;;1.23;100.00;100518.66;5026552;28;20172;-54
2022/01/08 07:58:47;;;;;;;18.60;13.80;;;;;;;1.31;100.00;100523.00;5026196;28;20180;-48
2022/01/08 08:01:12;;;;;;;15.15;12.38;;;;;;;1.27;100.00;100503.69;5026167;28;20192;-49
2022/01/08 08:03:37;;;;;;;18.45;11.43;;;;;;;1.28;100.00;100501.91;5026581;28;20196;-48
2022/01/08 09:17:21;;;;;;;14.45;9.85;;;;;;;1.46;100.00;100507.06;5083770;28;20268;-53
2022/01/08 09:19:47;;;;;;;15.07;10.20;;;;;;;1.51;100.00;100520.25;5086417;28;20202;-53
2022/01/08 09:22:13;;;;;;;12.32;10.43;;;;;;;1.54;100.00;100512.31;5085594;28;20190;-52
2022/01/08 09:24:40;;;;;;;13.15;10.35;;;;;;;1.55;100.00;100519.34;5082494;28;20169;-54
2022/01/08 09:27:06;;;;;;;14.30;10.85;;;;;;;1.53;100.00;100514.09;5086958;28;20249;-52
2022/01/08 09:29:32;;;;;;;13.10;10.27;;;;;;;1.50;100.00;100506.16;5086782;28;20205;-52
2022/01/08 09:31:58;;;;;;;15.02;10.93;;;;;;;1.56;100.00;100519.34;5087241;28;20174;-53
2022/01/08 09:34:24;;;;;;;13.10;10.73;;;;;;;1.55;100.00;100512.31;5087462;28;20224;-54
2022/01/08 09:36:50;;;;;;;15.55;11.27;;;;;;;1.60;100.00;100502.59;5086703;28;20194;-49
2022/01/08 09:39:16;;;;;;;15.32;11.70;;;;;;;1.68;100.00;100507.81;5082318;28;20182;-50
2022/01/08 09:41:41;;;;;;;20.63;12.10;;;;;;;1.61;100.00;100491.13;5086712;28;20166;-51
2022/01/08 09:44:07;;;;;;;16.42;11.88;;;;;;;1.69;100.00;100501.66;5084422;28;20841;-53
2022/01/08 10:09:13;;;;;;;15.65;9.63;;;;;;;1.96;100.00;100499.69;5034141;22;20239;-80
2022/01/08 10:11:48;;;;;;;17.25;10.32;;;;;;;2.02;100.00;100492.56;5115660;28;20180;-80
2022/01/08 10:14:27;;;;;;;11.60;8.82;;;;;;;1.97;100.00;100490.88;5097040;28;20164;-80
2022/01/08 10:19:37;;;;;;;12.45;8.50;;;;;;;2.08;100.00;100489.03;5103547;28;20205;-81
2022/01/08 10:22:14;;;;;;;13.02;8.30;;;;;;;2.07;100.00;100489.88;5077347;28;20193;-81
2022/01/08 10:24:39;;;;;;;13.13;7.78;;;;;;;2.06;100.00;100478.44;5112878;28;20172;-81
2022/01/08 10:27:06;;;;;;;12.10;7.68;;;;;;;2.07;100.00;100489.88;5107700;28;20241;-81
2022/01/08 10:29:33;;;;;;;10.13;7.47;;;;;;;2.23;100.00;100486.22;5097652;28;20259;-81
2022/01/08 10:31:59;;;;;;;9.77;7.63;;;;;;;2.26;100.00;100491.47;5097664;28;20825;-81
2022/01/08 10:34:27;;;;;;;10.73;7.38;;;;;;;2.32;100.00;100492.28;5064889;28;20181;-79
2022/01/08 10:37:06;;;;;;;12.13;7.38;;;;;;;2.27;100.00;100481.78;5103951;28;20209;-79
2022/01/08 10:39:39;;;;;;;10.95;6.70;;;;;;;2.28;100.00;100491.47;5085408;28;20784;-79
2022/01/08 10:42:16;;;;;;;9.48;6.60;;;;;;;2.10;100.00;100478.41;5105436;28;20185;-79
2022/01/08 10:44:44;;;;;;;11.50;7.55;;;;;;;2.14;100.00;100482.78;5103027;28;20901;-79
2022/01/08 10:47:17;;;;;;;11.35;7.30;;;;;;;2.17;100.00;100490.69;5084272;28;20179;-80
2022/01/08 10:49:44;;;;;;;8.60;6.68;;;;;;;2.19;100.00;100481.00;5078963;28;20181;-80
2022/01/08 10:52:13;;;;;;;10.55;6.68;;;;;;;2.26;100.00;100483.53;5078704;28;20183;-79
2022/01/08 10:54:45;;;;;;;14.80;6.78;;;;;;;2.26;100.00;100477.38;5060280;28;20258;-80
2022/01/08 10:57:14;;;;;;;14.35;6.63;;;;;;;2.20;100.00;100477.44;5086144;28;20688;-80
2022/01/08 10:59:42;;;;;;;11.05;7.13;;;;;;;2.20;100.00;100473.03;5078025;28;20202;-80
2022/01/08 11:02:12;;;;;;;9.82;6.95;;;;;;;2.18;100.00;100469.50;5083038;28;20197;-77
2022/01/08 11:04:41;;;;;;;9.77;6.55;;;;;;;2.29;100.00;100453.56;5081841;28;20184;-77
2022/01/08 11:07:13;;;;;;;9.65;6.63;;;;;;;2.39;100.00;100449.06;5094634;28;20205;-79
2022/01/08 11:09:41;;;;;;;9.73;6.00;;;;;;;2.37;100.00;100453.50;5095146;28;20197;-77
2022/01/08 11:12:13;;;;;;;13.55;6.80;;;;;;;2.28;100.00;100450.94;5096679;28;20185;-78
2022/01/08 11:17:29;;;;;;;9.65;6.00;;;;;;;2.33;100.00;100447.34;5080030;28;20241;-79
2022/01/08 11:20:19;;;;;;;15.23;6.22;;;;;;;2.32;100.00;100442.06;5068288;28;20194;-79
2022/01/08 11:22:47;;;;;;;13.15;6.30;;;;;;;2.23;100.00;100446.59;5077719;28;20221;-80
2022/01/08 11:25:21;;;;;;;14.55;6.68;;;;;;;2.22;100.00;100438.66;5078134;28;20222;-80
2022/01/08 11:27:59;;;;;;;11.77;6.30;;;;;;;2.32;100.00;100440.31;5093416;28;20169;-79
2022/01/08 11:30:27;;;;;;;9.57;7.10;;;;;;;2.42;100.00;100428.72;5086520;28;20198;-79
2022/01/08 11:32:56;;;;;;;12.43;6.43;;;;;;;2.30;100.00;100433.31;5085775;28;20178;-79
2022/01/08 11:35:24;;;;;;;14.80;6.57;;;;;;;2.28;100.00;100421.88;5079985;28;20186;-80
2022/01/08 11:37:52;;;;;;;13.07;7.45;;;;;;;2.24;100.00;100418.38;5077432;28;20166;-80
2022/01/08 11:40:20;;;;;;;11.68;7.10;;;;;;;2.38;100.00;100423.50;5094558;28;20166;-80
2022/01/08 11:42:46;;;;;;;9.45;7.50;;;;;;;2.28;100.00;100411.31;5094423;28;20746;-77
2022/01/08 11:45:16;;;;;;;10.10;6.72;;;;;;;2.30;100.00;100413.03;5073668;28;20203;-77
2022/01/08 11:47:46;;;;;;;11.20;7.45;;;;;;;2.30;100.00;100409.53;5096193;28;20158;-81
2022/01/08 11:50:18;;;;;;;10.05;7.07;;;;;;;2.31;100.00;100396.25;5073856;28;20182;-79
2022/01/08 11:52:43;;;;;;;9.25;6.40;;;;;;;2.28;100.00;100393.66;5091325;28;20188;-80
2022/01/08 11:55:09;;;;;;;9.95;7.00;;;;;;;2.41;100.00;100397.91;5091920;28;20595;-81
2022/01/08 11:57:35;;;;;;;8.13;6.63;;;;;;;2.33;100.00;100391.84;5056711;28;20296;-79
2022/01/08 12:00:02;;;;;;;10.55;6.72;;;;;;;2.36;100.00;100375.06;5092392;28;20217;-82
2022/01/08 12:02:39;;;;;;;9.02;6.43;;;;;;;2.53;100.00;100382.78;5074376;28;20174;-80
2022/01/08 12:05:07;;;;;;;10.43;6.50;;;;;;;2.45;99.92;100374.97;5075912;28;20272;-80
2022/01/08 12:07:37;;;;;;;11.32;5.43;;;;;;;2.45;99.60;100370.56;5059619;28;20184;-81
2022/01/08 12:10:21;;;;;;;10.00;5.65;;;;;;;2.51;99.29;100376.66;5099281;28;20242;-79
2022/01/08 12:12:51;;;;;;;11.68;5.85;;;;;;;2.62;99.56;100382.66;5083890;28;20178;-80
2022/01/08 12:15:38;;;;;;;8.43;6.00;;;;;;;2.62;99.14;100364.16;5082518;28;20182;-80
2022/01/08 12:18:03;;;;;;;12.60;5.60;;;;;;;2.65;98.75;100362.34;5063235;28;20201;-80
2022/01/08 12:20:39;;;;;;;11.07;5.75;;;;;;;2.75;98.95;100372.81;5073259;28;20218;-80
2022/01/08 12:23:36;;;;;;;11.18;6.15;;;;;;;2.67;98.52;100365.00;5079744;28;20170;-80
2022/01/08 12:26:21;;;;;;;14.40;6.10;;;;;;;2.72;98.09;100376.38;5074007;28;20214;-79
2022/01/08 12:28:46;;;;;;;8.93;5.97;;;;;;;2.65;98.15;100361.50;5056267;28;20186;-80
2022/01/08 12:31:21;;;;;;;12.90;6.57;;;;;;;2.63;98.42;100364.16;5076229;28;20158;-80
2022/01/08 12:33:47;;;;;;;8.02;5.70;;;;;;;2.70;98.04;100354.34;5058037;28;20170;-80
2022/01/08 12:36:31;;;;;;;11.80;6.15;;;;;;;2.65;97.93;100346.50;5056041;28;20284;-80
2022/01/08 12:39:03;;;;;;;11.68;6.18;;;;;;;2.65;97.63;100343.84;5061711;28;20202;-80
2022/01/08 12:41:28;;;;;;;8.23;5.60;;;;;;;2.63;97.87;100347.41;5058119;28;20672;-79
2022/01/08 12:43:54;;;;;;;9.07;5.63;;;;;;;2.66;97.67;100356.16;5058231;28;20167;-79
2022/01/08 12:46:22;;;;;;;8.02;5.22;;;;;;;2.67;97.77;100354.41;5073884;28;20628;-80
2022/01/08 12:49:10;;;;;;;9.40;5.68;;;;;;;2.75;97.68;100343.69;5081265;28;20186;-79
2022/01/08 12:51:48;;;;;;;10.98;5.30;;;;;;;2.62;97.20;100343.91;5080265;28;20181;-79
2022/01/08 12:54:16;;;;;;;11.25;5.70;;;;;;;2.67;97.34;100336.75;5081585;28;20196;-79
2022/01/08 12:56:50;;;;;;;12.20;5.15;;;;;;;2.64;97.33;100342.06;5079987;28;20210;-79
2022/01/08 12:59:16;;;;;;;12.27;6.20;;;;;;;2.70;97.36;100343.78;5074759;28;20183;-79
2022/01/08 13:01:46;;;;;;;10.50;6.03;;;;;;;2.77;97.17;100332.19;5060036;28;20276;-78
2022/01/08 13:04:15;;;;;;;9.65;5.45;;;;;;;2.77;97.21;100339.28;5082477;28;20182;-79
2022/01/08 13:06:42;;;;;;;11.77;5.32;;;;;;;2.84;97.18;100325.03;5056257;28;20162;-79
2022/01/08 13:09:08;;;;;;;10.90;5.32;;;;;;;2.76;96.76;100324.31;5074224;28;20202;-79
2022/01/08 13:11:35;;;;;;;10.55;5.18;;;;;;;2.74;96.64;100324.31;5074652;28;20166;-80
2022/01/08 13:14:04;;;;;;;10.07;5.10;;;;;;;2.82;96.67;100322.44;5073578;28;20163;-80
2022/01/08 13:16:39;;;;;;;9.88;5.20;;;;;;;2.92;96.59;100322.31;5057680;28;20206;-80
2022/01/08 13:19:09;;;;;;;8.85;4.95;;;;;;;2.91;96.09;100323.19;5073390;28;20378;-82
2022/01/08 13:21:42;;;;;;;10.40;5.03;;;;;;;2.80;95.91;100313.66;5093032;28;20173;-81
2022/01/08 13:24:20;;;;;;;14.38;5.50;;;;;;;2.77;95.88;100310.16;5075120;28;20176;-80
2022/01/08 13:27:04;;;;;;;11.07;4.95;;;;;;;2.73;95.94;100306.69;5075552;28;20170;-80
2022/01/08 13:29:35;;;;;;;11.32;5.70;;;;;;;2.76;96.02;100304.00;5084441;28;20557;-79